Strona główna
METAR-TAF:

METAR-TAF

Lotnisko :

Peer, Belgia

Szerokość geograficzna: 51-10N, Długość geograficzna: 005-28E, wysokość: 55 m

Aktualna obserwacja pogody

Raport powstał 37 minut temu, godzina 06:25 UTC
Wiatr 8 kt od południowy zachód
Temperatura 18°C
Wilgotność 77%
Ciśnienie 1019 hPa
Widzialność 10 km lub więcej

METAR: EBBL 210625Z AUTO 23008KT 9999 BKN011/// 18/14 Q1019 GRN

czas: 09:02 (07:02 UTC)

Prognoza

Raport powstał 15 godziny i 21 minut temu, godzina 15:41 UTC
Prognoza ważna od 19 godzina 19 UTC do 20 godzina 07 UTC
Wiatr 5 kt od południowo-południowy zachód
Widzialność 10 km lub więcej
Mało chmury na wysokości 5000 ft
Rozproszone chmury na wysokości 12000 ft
Przerywane chmury na wysokości 20000 ft
Stopniowe zmiany
od 20 godzina 00 UTC do 20 godzina 02 UTC
Wiatr 3 kt od południe

TAF: EBBL 191541Z 1919/2007 20005KT 9999 FEW050 SCT120 BKN200 BECMG 2000/2002 17003KT

Obserwacja i prognoza pogody dla ponad 4000 lotnisk (raport METAR i TAF).

Dostępne stacje oznaczono żółtymi i czerwonymi punktami na mapie.

Najedź kursorem aby zobaczyć nazwę stacji.

Kliknij aby zobaczyć obserwacje i prognozy pogody.

Aby zmienić mapę: kliknij na zielony przycisk z czarnym krzyżykiem, aby powiększyć; na zielony przycisk z myślnikiem, aby pomniejszyć; na zielone strzałki, aby przejść do map sąsiednich.


METAR-TAF: